Time;durP1;ratioP1;P1;durP2;ratioP2;P2;SDS_P1;SDS_P2;PMS_P1;PMS_P2;Temp;Humidity;BMP_temperature;BMP_pressure;BME280_temperature;BME280_humidity;BME280_pressure;Samples;Min_cycle;Max_cycle;Signal;HPM_P1;HPM_P2
2021/04/22 00:02:05;;;;;;;13.33;3.40;;;;;;;;;;5013479;28;20456;-63
2021/04/22 00:04:32;;;;;;;13.37;3.40;;;;;;;;;;5011820;28;20490;-61
2021/04/22 00:07:00;;;;;;;21.30;4.13;;;;;;;;;;5010356;28;20452;-63
2021/04/22 00:09:26;;;;;;;14.50;3.80;;;;;;;;;;5012283;28;20842;-62
2021/04/22 00:11:53;;;;;;;14.73;3.40;;;;;;;;;;5012724;28;20449;-63
2021/04/22 00:14:19;;;;;;;15.23;3.70;;;;;;;;;;5012577;28;20491;-60
2021/04/22 00:16:47;;;;;;;14.00;3.70;;;;;;;;;;5012822;28;20527;-62
2021/04/22 00:19:13;;;;;;;15.27;4.10;;;;;;;;;;5012256;28;20446;-63
2021/04/22 00:21:40;;;;;;;20.70;4.17;;;;;;;;;;5012433;28;20453;-62
2021/04/22 00:24:07;;;;;;;20.13;3.43;;;;;;;;;;5011434;28;20474;-63
2021/04/22 00:26:33;;;;;;;13.60;3.63;;;;;;;;;;5012047;28;20516;-63
2021/04/22 00:29:00;;;;;;;15.70;3.10;;;;;;;;;;5011744;28;20492;-63
2021/04/22 00:31:26;;;;;;;11.87;3.70;;;;;;;;;;5012983;28;20822;-63
2021/04/22 00:33:54;;;;;;;15.97;3.40;;;;;;;;;;5012114;28;20456;-62
2021/04/22 00:36:21;;;;;;;12.77;3.17;;;;;;;;;;5012804;28;20453;-62
2021/04/22 00:38:47;;;;;;;15.77;3.63;;;;;;;;;;5012552;28;20455;-61
2021/04/22 00:41:14;;;;;;;14.57;3.57;;;;;;;;;;5012454;28;20818;-63
2021/04/22 00:43:41;;;;;;;16.67;3.60;;;;;;;;;;5011799;28;20463;-62
2021/04/22 00:46:07;;;;;;;21.13;4.53;;;;;;;;;;5012612;28;20459;-63
2021/04/22 00:48:34;;;;;;;18.93;3.97;;;;;;;;;;5012532;28;20496;-62
2021/04/22 00:51:01;;;;;;;18.63;3.97;;;;;;;;;;5012110;28;20812;-62
2021/04/22 00:53:29;;;;;;;12.47;3.73;;;;;;;;;;5012068;28;20456;-63
2021/04/22 00:55:55;;;;;;;17.07;3.80;;;;;;;;;;5012130;28;20526;-63
2021/04/22 00:58:22;;;;;;;14.10;4.30;;;;;;;;;;5011385;28;20872;-63
2021/04/22 01:00:54;;;;;;;17.17;3.97;;;;;;;;;;5012313;28;20449;-62
2021/04/22 01:03:21;;;;;;;18.23;3.73;;;;;;;;;;5011907;28;20452;-63
2021/04/22 01:05:48;;;;;;;15.10;3.63;;;;;;;;;;5012186;28;20467;-63
2021/04/22 01:08:16;;;;;;;19.03;4.23;;;;;;;;;;5010887;28;21008;-63
2021/04/22 01:10:42;;;;;;;15.23;4.17;;;;;;;;;;5012341;28;20471;-63
2021/04/22 01:13:09;;;;;;;17.23;3.47;;;;;;;;;;5012450;28;21105;-62
2021/04/22 01:15:36;;;;;;;25.60;3.93;;;;;;;;;;5011679;28;20475;-63
2021/04/22 01:18:05;;;;;;;17.00;3.67;;;;;;;;;;5011764;28;20452;-62
2021/04/22 01:20:32;;;;;;;12.43;3.67;;;;;;;;;;5011474;28;20455;-62
2021/04/22 01:23:00;;;;;;;16.03;3.63;;;;;;;;;;5012081;28;20941;-63
2021/04/22 01:25:28;;;;;;;17.37;3.43;;;;;;;;;;5010828;28;20883;-62
2021/04/22 01:27:55;;;;;;;11.40;3.30;;;;;;;;;;5011411;28;20861;-60
2021/04/22 01:30:24;;;;;;;17.43;3.73;;;;;;;;;;5010299;28;20452;-63
2021/04/22 01:32:50;;;;;;;14.90;4.23;;;;;;;;;;5011761;28;20562;-61
2021/04/22 01:35:19;;;;;;;22.97;4.20;;;;;;;;;;5011101;28;20471;-61
2021/04/22 01:37:46;;;;;;;14.83;3.60;;;;;;;;;;5011656;28;20446;-62
2021/04/22 01:40:15;;;;;;;21.97;4.33;;;;;;;;;;5011988;28;20453;-62
2021/04/22 01:42:41;;;;;;;13.80;3.10;;;;;;;;;;5011653;28;20448;-62
2021/04/22 01:45:09;;;;;;;13.03;3.60;;;;;;;;;;5011431;28;20500;-63
2021/04/22 01:47:36;;;;;;;23.03;4.03;;;;;;;;;;5010868;28;20462;-63
2021/04/22 01:50:03;;;;;;;21.90;4.10;;;;;;;;;;5011584;28;20448;-63
2021/04/22 01:52:30;;;;;;;14.47;3.47;;;;;;;;;;5011876;28;20459;-63
2021/04/22 01:54:57;;;;;;;14.90;4.27;;;;;;;;;;5011354;28;20474;-63
2021/04/22 01:57:24;;;;;;;20.23;4.20;;;;;;;;;;5011818;28;20455;-63
2021/04/22 01:59:50;;;;;;;15.43;4.47;;;;;;;;;;5011291;28;20464;-63
2021/04/22 02:02:17;;;;;;;14.70;3.17;;;;;;;;;;5011476;28;20461;-63
2021/04/22 02:04:44;;;;;;;15.77;3.73;;;;;;;;;;5011958;28;20475;-62
2021/04/22 02:07:10;;;;;;;17.87;3.57;;;;;;;;;;5013104;28;20447;-62
2021/04/22 02:09:37;;;;;;;15.57;4.23;;;;;;;;;;5014135;28;20857;-63
2021/04/22 02:12:03;;;;;;;11.93;4.17;;;;;;;;;;5012268;28;20443;-62
2021/04/22 02:14:31;;;;;;;15.43;3.80;;;;;;;;;;5011568;28;20530;-63
2021/04/22 02:16:57;;;;;;;15.20;4.10;;;;;;;;;;5010995;28;20455;-63
2021/04/22 02:19:24;;;;;;;19.10;4.00;;;;;;;;;;5009938;28;20937;-62
2021/04/22 02:21:51;;;;;;;11.13;3.43;;;;;;;;;;5009953;28;20836;-61
2021/04/22 02:24:17;;;;;;;21.77;3.73;;;;;;;;;;5010264;28;20983;-61
2021/04/22 02:26:44;;;;;;;18.57;3.80;;;;;;;;;;5011476;28;20456;-62
2021/04/22 02:29:10;;;;;;;16.77;3.63;;;;;;;;;;5011720;28;21029;-61
2021/04/22 02:31:38;;;;;;;15.60;3.17;;;;;;;;;;5014882;28;20461;-62
2021/04/22 02:34:05;;;;;;;12.30;3.47;;;;;;;;;;5014663;28;20961;-62
2021/04/22 02:36:31;;;;;;;18.57;3.40;;;;;;;;;;5014792;28;20508;-61
2021/04/22 02:38:58;;;;;;;13.57;3.43;;;;;;;;;;5014000;28;20447;-61
2021/04/22 02:41:24;;;;;;;15.13;3.83;;;;;;;;;;5014609;28;20506;-62
2021/04/22 02:43:50;;;;;;;12.37;3.63;;;;;;;;;;5013675;28;20477;-62
2021/04/22 02:46:17;;;;;;;12.43;4.43;;;;;;;;;;5012934;28;20457;-60
2021/04/22 02:48:45;;;;;;;14.00;3.97;;;;;;;;;;5012327;28;20493;-58
2021/04/22 02:51:11;;;;;;;14.93;4.37;;;;;;;;;;5014892;28;20450;-61
2021/04/22 02:53:38;;;;;;;16.93;4.57;;;;;;;;;;5014238;28;20951;-61
2021/04/22 02:56:05;;;;;;;16.30;4.33;;;;;;;;;;5013739;28;20476;-62
2021/04/22 02:58:31;;;;;;;17.70;4.07;;;;;;;;;;5014464;28;20451;-62
2021/04/22 03:00:58;;;;;;;12.93;3.53;;;;;;;;;;5014527;28;20871;-61
2021/04/22 03:03:24;;;;;;;19.30;4.67;;;;;;;;;;5014191;28;20484;-60
2021/04/22 03:05:52;;;;;;;11.23;4.13;;;;;;;;;;5014255;28;20516;-62
2021/04/22 03:08:18;;;;;;;20.07;4.30;;;;;;;;;;5014326;28;20494;-61
2021/04/22 03:10:45;;;;;;;18.57;4.57;;;;;;;;;;5014091;28;20446;-61
2021/04/22 03:13:11;;;;;;;21.33;4.97;;;;;;;;;;5014218;28;20446;-61
2021/04/22 03:15:38;;;;;;;16.33;4.57;;;;;;;;;;5013586;28;20838;-61
2021/04/22 03:18:04;;;;;;;21.03;5.10;;;;;;;;;;5013980;28;20447;-61
2021/04/22 03:20:32;;;;;;;19.73;3.83;;;;;;;;;;5014166;28;20506;-62
2021/04/22 03:23:00;;;;;;;14.57;4.00;;;;;;;;;;5014074;28;20939;-60
2021/04/22 03:25:27;;;;;;;14.10;4.60;;;;;;;;;;5014577;28;20482;-61
2021/04/22 03:27:54;;;;;;;20.90;5.00;;;;;;;;;;5014061;28;20454;-59
2021/04/22 03:30:21;;;;;;;21.03;4.60;;;;;;;;;;5014114;28;20454;-62
2021/04/22 03:32:47;;;;;;;20.23;5.20;;;;;;;;;;5013920;28;20458;-63
2021/04/22 03:35:14;;;;;;;19.57;4.60;;;;;;;;;;5013163;28;20488;-61
2021/04/22 03:37:41;;;;;;;18.23;5.20;;;;;;;;;;5013093;28;21209;-62
2021/04/22 03:40:10;;;;;;;25.60;4.87;;;;;;;;;;5013186;28;20446;-62
2021/04/22 03:42:36;;;;;;;16.50;4.97;;;;;;;;;;5013207;28;20453;-62
2021/04/22 03:45:03;;;;;;;18.57;5.17;;;;;;;;;;5013421;28;20475;-62
2021/04/22 03:47:30;;;;;;;19.57;5.03;;;;;;;;;;5013553;28;20452;-61
2021/04/22 03:49:56;;;;;;;18.47;6.03;;;;;;;;;;5013704;28;21019;-62
2021/04/22 03:52:23;;;;;;;22.33;6.17;;;;;;;;;;5013418;28;20473;-63
2021/04/22 03:54:50;;;;;;;21.93;5.40;;;;;;;;;;5013213;28;20805;-62
2021/04/22 03:57:18;;;;;;;19.40;5.30;;;;;;;;;;5012943;28;20497;-62
2021/04/22 03:59:44;;;;;;;21.70;5.20;;;;;;;;;;5013120;28;20525;-63
2021/04/22 04:02:11;;;;;;;17.20;5.67;;;;;;;;;;5013718;28;20458;-64
2021/04/22 04:04:37;;;;;;;20.97;5.30;;;;;;;;;;5012897;28;20516;-61
2021/04/22 04:07:04;;;;;;;22.27;5.00;;;;;;;;;;5010315;28;20461;-62
2021/04/22 04:09:30;;;;;;;14.37;5.03;;;;;;;;;;5015245;28;21734;-67
2021/04/22 04:11:57;;;;;;;22.93;5.77;;;;;;;;;;5008566;28;20472;-66
2021/04/22 04:14:24;;;;;;;22.43;5.83;;;;;;;;;;5012762;28;21174;-66
2021/04/22 04:16:51;;;;;;;20.80;5.13;;;;;;;;;;5012858;28;20443;-62
2021/04/22 04:19:17;;;;;;;19.50;5.07;;;;;;;;;;5012625;28;20452;-63
2021/04/22 04:21:44;;;;;;;27.53;5.90;;;;;;;;;;5012298;28;20829;-62
2021/04/22 04:24:10;;;;;;;22.70;5.60;;;;;;;;;;5012439;28;20483;-61
2021/04/22 04:26:37;;;;;;;13.30;5.00;;;;;;;;;;5012941;28;20462;-61
2021/04/22 04:29:04;;;;;;;29.07;6.47;;;;;;;;;;5012839;28;20963;-61
2021/04/22 04:31:31;;;;;;;21.70;5.77;;;;;;;;;;5012733;28;20454;-60
2021/04/22 04:33:58;;;;;;;16.47;5.13;;;;;;;;;;5013204;28;20899;-61
2021/04/22 04:36:24;;;;;;;16.57;5.30;;;;;;;;;;5013181;28;20457;-60
2021/04/22 04:38:51;;;;;;;16.40;5.33;;;;;;;;;;5013780;28;20466;-60
2021/04/22 04:41:17;;;;;;;16.10;4.77;;;;;;;;;;5013594;28;20458;-61
2021/04/22 04:43:44;;;;;;;15.33;4.83;;;;;;;;;;5013452;28;20462;-62
2021/04/22 04:46:12;;;;;;;19.40;5.17;;;;;;;;;;5013751;28;20473;-61
2021/04/22 04:48:39;;;;;;;18.07;5.77;;;;;;;;;;5013505;28;20515;-61
2021/04/22 04:51:06;;;;;;;22.63;5.67;;;;;;;;;;5012602;28;20457;-61
2021/04/22 04:53:32;;;;;;;23.27;4.90;;;;;;;;;;5012659;28;20958;-59
2021/04/22 04:55:59;;;;;;;22.60;7.57;;;;;;;;;;5012857;28;20554;-61
2021/04/22 04:58:25;;;;;;;24.10;6.80;;;;;;;;;;5013184;28;20822;-62
2021/04/22 05:00:52;;;;;;;15.53;5.93;;;;;;;;;;5013844;28;20449;-61
2021/04/22 05:03:18;;;;;;;19.00;6.50;;;;;;;;;;5011282;28;20500;-61
2021/04/22 05:05:46;;;;;;;20.77;6.70;;;;;;;;;;5011314;28;20482;-61
2021/04/22 05:08:12;;;;;;;25.80;7.27;;;;;;;;;;5010859;28;20829;-62
2021/04/22 05:10:39;;;;;;;24.67;8.07;;;;;;;;;;5012089;28;20454;-61
2021/04/22 05:13:05;;;;;;;22.37;7.83;;;;;;;;;;5011121;28;20838;-65
2021/04/22 05:15:32;;;;;;;25.83;8.37;;;;;;;;;;5011663;28;20462;-69
2021/04/22 05:17:58;;;;;;;23.53;7.87;;;;;;;;;;5010718;28;20451;-69
2021/04/22 05:20:25;;;;;;;20.17;6.83;;;;;;;;;;5011126;28;20602;-70
2021/04/22 05:23:19;;;;;;;21.73;6.53;;;;;;;;;;5011769;28;20446;-72
2021/04/22 05:25:46;;;;;;;24.40;7.77;;;;;;;;;;5009608;28;20538;-71
2021/04/22 05:28:13;;;;;;;20.60;6.77;;;;;;;;;;5010674;28;20509;-66
2021/04/22 05:30:41;;;;;;;26.57;7.23;;;;;;;;;;5011056;28;21029;-67
2021/04/22 05:33:08;;;;;;;28.20;6.73;;;;;;;;;;5011816;28;20582;-66
2021/04/22 05:35:35;;;;;;;26.50;7.07;;;;;;;;;;5018075;28;20653;-70
2021/04/22 05:38:01;;;;;;;26.00;7.40;;;;;;;;;;5030565;28;20590;-67
2021/04/22 05:40:28;;;;;;;21.80;6.77;;;;;;;;;;5031019;28;20457;-66
2021/04/22 05:42:56;;;;;;;27.13;7.17;;;;;;;;;;5031008;28;20457;-67
2021/04/22 05:45:22;;;;;;;30.43;7.97;;;;;;;;;;5030733;28;20478;-66
2021/04/22 05:47:49;;;;;;;24.53;7.37;;;;;;;;;;5029686;28;20449;-66
2021/04/22 05:50:16;;;;;;;24.43;7.27;;;;;;;;;;5011043;28;20450;-65
2021/04/22 05:52:43;;;;;;;28.10;7.50;;;;;;;;;;5011397;28;20451;-66
2021/04/22 05:55:11;;;;;;;27.13;7.43;;;;;;;;;;5011100;28;20976;-67
2021/04/22 05:57:37;;;;;;;28.23;7.13;;;;;;;;;;5009946;28;20945;-66
2021/04/22 06:00:06;;;;;;;21.63;6.70;;;;;;;;;;5011207;28;20447;-68
2021/04/22 06:02:32;;;;;;;22.87;7.63;;;;;;;;;;5011471;28;20483;-68
2021/04/22 06:04:59;;;;;;;22.30;6.63;;;;;;;;;;5015226;28;20499;-68
2021/04/22 06:07:25;;;;;;;20.17;6.70;;;;;;;;;;5022895;28;20455;-68
2021/04/22 06:09:52;;;;;;;24.20;7.53;;;;;;;;;;5019742;28;20563;-68
2021/04/22 06:12:18;;;;;;;22.73;6.43;;;;;;;;;;5018382;28;20935;-68
2021/04/22 06:14:45;;;;;;;22.17;6.07;;;;;;;;;;5024314;28;20856;-68
2021/04/22 06:17:12;;;;;;;18.53;6.80;;;;;;;;;;5022994;28;20450;-70
2021/04/22 06:19:39;;;;;;;21.93;7.70;;;;;;;;;;5021494;28;20445;-69
2021/04/22 06:22:05;;;;;;;21.30;6.97;;;;;;;;;;5015415;28;20454;-64
2021/04/22 06:24:32;;;;;;;22.43;6.80;;;;;;;;;;5014598;28;20549;-65
2021/04/22 06:26:58;;;;;;;20.87;6.17;;;;;;;;;;5014881;28;20459;-65
2021/04/22 06:29:25;;;;;;;22.17;6.90;;;;;;;;;;5014502;28;20486;-65
2021/04/22 06:31:51;;;;;;;23.93;6.83;;;;;;;;;;5014716;28;20465;-64
2021/04/22 06:34:19;;;;;;;22.87;6.10;;;;;;;;;;5013835;28;20849;-60
2021/04/22 06:36:45;;;;;;;21.00;6.73;;;;;;;;;;5014272;28;20461;-62
2021/04/22 06:39:12;;;;;;;18.93;5.63;;;;;;;;;;5014401;28;20453;-62
2021/04/22 06:41:38;;;;;;;21.10;6.03;;;;;;;;;;5014055;28;20515;-62
2021/04/22 06:44:06;;;;;;;18.37;5.73;;;;;;;;;;5014269;28;20477;-68
2021/04/22 06:46:32;;;;;;;24.80;6.67;;;;;;;;;;5013318;28;20461;-69
2021/04/22 06:48:59;;;;;;;17.87;5.80;;;;;;;;;;5014182;28;20850;-69
2021/04/22 06:51:27;;;;;;;20.17;5.47;;;;;;;;;;5014194;28;20453;-71
2021/04/22 06:53:54;;;;;;;18.73;4.77;;;;;;;;;;5013346;28;20516;-71
2021/04/22 06:56:21;;;;;;;17.23;5.33;;;;;;;;;;5014105;28;20453;-70
2021/04/22 06:58:47;;;;;;;18.37;5.53;;;;;;;;;;5012284;28;20493;-63
2021/04/22 07:01:14;;;;;;;21.57;5.37;;;;;;;;;;5013982;28;20446;-63
2021/04/22 07:03:40;;;;;;;20.57;4.97;;;;;;;;;;5013685;28;20453;-64
2021/04/22 07:06:07;;;;;;;17.13;5.10;;;;;;;;;;5013313;28;20849;-64
2021/04/22 07:08:35;;;;;;;13.77;4.97;;;;;;;;;;5013269;28;20508;-62
2021/04/22 07:11:02;;;;;;;17.93;4.37;;;;;;;;;;5014579;28;20468;-64
2021/04/22 07:13:28;;;;;;;16.27;3.97;;;;;;;;;;5014384;28;20478;-64
2021/04/22 07:15:55;;;;;;;14.87;3.57;;;;;;;;;;5011529;28;20465;-63
2021/04/22 07:18:21;;;;;;;14.13;3.83;;;;;;;;;;5012567;28;20453;-66
2021/04/22 07:20:48;;;;;;;15.07;4.00;;;;;;;;;;5013645;28;20458;-63
2021/04/22 07:23:15;;;;;;;10.20;3.40;;;;;;;;;;5013218;28;20458;-62
2021/04/22 07:25:42;;;;;;;16.27;3.80;;;;;;;;;;5012707;28;20544;-62
2021/04/22 07:28:10;;;;;;;17.53;3.33;;;;;;;;;;5012327;28;20450;-63
2021/04/22 07:30:37;;;;;;;11.20;3.47;;;;;;;;;;5012416;28;20454;-63
2021/04/22 07:33:04;;;;;;;9.93;3.20;;;;;;;;;;5013404;28;20450;-62
2021/04/22 07:35:30;;;;;;;10.47;3.43;;;;;;;;;;5012807;28;21212;-63
2021/04/22 07:37:57;;;;;;;16.30;4.17;;;;;;;;;;5012680;28;21004;-68
2021/04/22 07:40:25;;;;;;;12.40;3.80;;;;;;;;;;5013416;28;20512;-67
2021/04/22 07:42:52;;;;;;;11.97;3.47;;;;;;;;;;5012579;28;20461;-67
2021/04/22 07:45:20;;;;;;;10.17;3.33;;;;;;;;;;5012566;28;20873;-68
2021/04/22 07:47:47;;;;;;;9.93;3.40;;;;;;;;;;5012606;28;20538;-64
2021/04/22 07:50:14;;;;;;;9.67;3.70;;;;;;;;;;5010660;28;20485;-63
2021/04/22 07:52:43;;;;;;;7.23;2.73;;;;;;;;;;5012243;28;21020;-64
2021/04/22 07:55:11;;;;;;;12.07;3.20;;;;;;;;;;5012631;28;20568;-62
2021/04/22 07:57:38;;;;;;;10.07;3.13;;;;;;;;;;5013894;28;20489;-64
2021/04/22 08:00:06;;;;;;;8.03;2.83;;;;;;;;;;5014197;28;20523;-63
2021/04/22 08:02:33;;;;;;;13.23;3.40;;;;;;;;;;5013177;28;20456;-63
2021/04/22 08:05:00;;;;;;;12.30;3.57;;;;;;;;;;5014333;28;20478;-63
2021/04/22 08:07:26;;;;;;;11.13;2.73;;;;;;;;;;5015170;28;20449;-63
2021/04/22 08:09:53;;;;;;;12.07;3.00;;;;;;;;;;5013003;28;20490;-62
2021/04/22 08:12:19;;;;;;;8.43;2.80;;;;;;;;;;5012899;28;20457;-65
2021/04/22 08:14:46;;;;;;;13.07;3.57;;;;;;;;;;5012418;28;20470;-66
2021/04/22 08:17:14;;;;;;;6.03;3.47;;;;;;;;;;5012606;28;20485;-65
2021/04/22 08:19:40;;;;;;;13.13;4.80;;;;;;;;;;5012100;28;20461;-65
2021/04/22 08:22:07;;;;;;;16.67;5.03;;;;;;;;;;5012775;28;20479;-66
2021/04/22 08:24:33;;;;;;;12.53;4.13;;;;;;;;;;5010988;28;20549;-67
2021/04/22 08:27:00;;;;;;;16.67;3.60;;;;;;;;;;5010507;28;20821;-68
2021/04/22 08:29:26;;;;;;;8.73;4.10;;;;;;;;;;5010153;28;20849;-68
2021/04/22 08:31:53;;;;;;;11.03;3.90;;;;;;;;;;5010565;28;20460;-68
2021/04/22 08:34:20;;;;;;;9.77;3.63;;;;;;;;;;5012128;28;20470;-65
2021/04/22 08:36:47;;;;;;;10.17;2.97;;;;;;;;;;5011769;28;20224;-64
2021/04/22 08:39:16;;;;;;;7.77;3.00;;;;;;;;;;5010409;28;20303;-63
2021/04/22 08:41:42;;;;;;;15.70;4.23;;;;;;;;;;5010504;28;20631;-63
2021/04/22 08:44:09;;;;;;;10.27;3.10;;;;;;;;;;5010950;28;20228;-63
2021/04/22 08:46:37;;;;;;;15.20;3.63;;;;;;;;;;5010830;28;20214;-63
2021/04/22 08:49:03;;;;;;;15.00;3.53;;;;;;;;;;5011569;28;20739;-65
2021/04/22 08:51:31;;;;;;;12.83;3.53;;;;;;;;;;5012411;28;20208;-64
2021/04/22 08:53:57;;;;;;;13.17;3.90;;;;;;;;;;5011974;28;20208;-65
2021/04/22 08:56:24;;;;;;;11.17;3.77;;;;;;;;;;5012066;28;20618;-64
2021/04/22 08:58:51;;;;;;;12.60;3.70;;;;;;;;;;5010852;28;20596;-65
2021/04/22 09:01:18;;;;;;;11.40;3.97;;;;;;;;;;5011556;28;20250;-67
2021/04/22 09:03:47;;;;;;;9.43;3.37;;;;;;;;;;5011473;28;20207;-67
2021/04/22 09:06:14;;;;;;;12.47;4.10;;;;;;;;;;5011076;28;20235;-71
2021/04/22 09:08:44;;;;;;;11.77;3.67;;;;;;;;;;5010882;28;20700;-68
2021/04/22 09:11:12;;;;;;;11.47;4.07;;;;;;;;;;5011472;28;20295;-69
2021/04/22 09:13:39;;;;;;;11.83;3.50;;;;;;;;;;5011547;28;20223;-68
2021/04/22 09:16:06;;;;;;;11.53;3.30;;;;;;;;;;5011181;28;20237;-66
2021/04/22 09:18:38;;;;;;;12.80;3.97;;;;;;;;;;5011298;28;20618;-66
2021/04/22 09:21:05;;;;;;;14.00;3.90;;;;;;;;;;5010951;28;20217;-64
2021/04/22 09:23:31;;;;;;;12.60;3.60;;;;;;;;;;5011844;28;20218;-68
2021/04/22 09:26:01;;;;;;;13.60;3.73;;;;;;;;;;5010765;28;20238;-66
2021/04/22 09:28:35;;;;;;;12.80;3.57;;;;;;;;;;5010627;28;20249;-68
2021/04/22 09:31:01;;;;;;;8.70;3.40;;;;;;;;;;5011786;28;20210;-67
2021/04/22 09:33:29;;;;;;;14.67;3.60;;;;;;;;;;5011278;28;20207;-66
2021/04/22 09:36:05;;;;;;;12.13;4.13;;;;;;;;;;5011097;28;20278;-67
2021/04/22 09:38:32;;;;;;;6.50;3.33;;;;;;;;;;5009790;28;20202;-63
2021/04/22 09:41:07;;;;;;;11.40;3.43;;;;;;;;;;5014849;28;20214;-61
2021/04/22 09:43:34;;;;;;;17.43;4.33;;;;;;;;;;5015649;28;20202;-60
2021/04/22 09:46:01;;;;;;;13.50;3.60;;;;;;;;;;5014962;28;20234;-60
2021/04/22 09:48:28;;;;;;;17.03;4.57;;;;;;;;;;5014876;28;20210;-67
2021/04/22 09:50:55;;;;;;;14.87;4.20;;;;;;;;;;5015097;28;20233;-67
2021/04/22 09:53:25;;;;;;;11.57;4.00;;;;;;;;;;5015511;28;20823;-66
2021/04/22 09:55:52;;;;;;;14.63;4.13;;;;;;;;;;5015108;28;20354;-66
2021/04/22 09:58:26;;;;;;;14.37;4.10;;;;;;;;;;5014798;28;20217;-67
2021/04/22 10:00:52;;;;;;;7.50;3.30;;;;;;;;;;5015330;28;20251;-68
2021/04/22 10:03:19;;;;;;;12.67;3.90;;;;;;;;;;5015855;28;20673;-67
2021/04/22 10:05:45;;;;;;;12.27;3.83;;;;;;;;;;5015020;28;20605;-64
2021/04/22 10:08:13;;;;;;;11.70;4.23;;;;;;;;;;5015933;28;20206;-61
2021/04/22 10:10:41;;;;;;;9.70;3.43;;;;;;;;;;5014933;28;20672;-70
2021/04/22 10:13:08;;;;;;;8.90;3.87;;;;;;;;;;5015337;28;20254;-67
2021/04/22 10:15:36;;;;;;;16.37;4.23;;;;;;;;;;5014476;28;20723;-66
2021/04/22 10:18:03;;;;;;;9.83;3.63;;;;;;;;;;5019074;28;20207;-61
2021/04/22 10:20:30;;;;;;;16.40;4.17;;;;;;;;;;5019445;28;20214;-61
2021/04/22 10:22:57;;;;;;;9.37;4.00;;;;;;;;;;5016449;28;20222;-59
2021/04/22 10:25:24;;;;;;;12.40;4.10;;;;;;;;;;5015526;28;20234;-61
2021/04/22 10:27:51;;;;;;;10.63;3.30;;;;;;;;;;5020484;28;20601;-68
2021/04/22 10:30:19;;;;;;;14.10;3.60;;;;;;;;;;5027723;28;20231;-62
2021/04/22 10:32:46;;;;;;;12.43;4.33;;;;;;;;;;5017967;28;20583;-65
2021/04/22 10:35:14;;;;;;;12.73;3.80;;;;;;;;;;5013820;28;20231;-66
2021/04/22 10:37:41;;;;;;;10.67;4.50;;;;;;;;;;5014201;28;20207;-61
2021/04/22 10:40:09;;;;;;;9.67;3.43;;;;;;;;;;5014544;28;20257;-66
2021/04/22 10:42:37;;;;;;;13.67;3.50;;;;;;;;;;5013609;28;20213;-66
2021/04/22 10:45:04;;;;;;;13.60;3.87;;;;;;;;;;5013448;28;20762;-63
2021/04/22 10:47:30;;;;;;;13.07;4.07;;;;;;;;;;5013230;28;20211;-63
2021/04/22 10:49:58;;;;;;;11.60;4.33;;;;;;;;;;5013609;28;20269;-64
2021/04/22 10:52:24;;;;;;;11.00;3.03;;;;;;;;;;5014429;28;20238;-63
2021/04/22 10:54:52;;;;;;;11.47;4.53;;;;;;;;;;5013885;28;20234;-63
2021/04/22 10:57:20;;;;;;;8.73;3.40;;;;;;;;;;5015017;28;20297;-62
2021/04/22 10:59:48;;;;;;;13.50;4.13;;;;;;;;;;5013752;28;20207;-61
2021/04/22 11:02:16;;;;;;;15.67;4.23;;;;;;;;;;5014419;28;20207;-67
2021/04/22 11:04:43;;;;;;;12.20;3.80;;;;;;;;;;5014043;28;20281;-68
2021/04/22 11:07:18;;;;;;;13.53;4.33;;;;;;;;;;5013828;28;20207;-67
2021/04/22 11:09:45;;;;;;;14.13;4.57;;;;;;;;;;5012613;28;20226;-65
2021/04/22 11:12:12;;;;;;;13.00;4.40;;;;;;;;;;5014148;28;20218;-66
2021/04/22 11:14:40;;;;;;;10.87;3.87;;;;;;;;;;5013615;28;20227;-64
2021/04/22 11:17:07;;;;;;;9.27;4.03;;;;;;;;;;5014386;28;20208;-64
2021/04/22 11:19:36;;;;;;;13.40;4.60;;;;;;;;;;5013190;28;20207;-64
2021/04/22 11:22:06;;;;;;;10.90;4.50;;;;;;;;;;5013785;28;20342;-63
2021/04/22 11:24:34;;;;;;;12.03;4.20;;;;;;;;;;5013235;28;20614;-63
2021/04/22 11:27:02;;;;;;;11.87;4.47;;;;;;;;;;5013384;28;20207;-62
2021/04/22 11:29:38;;;;;;;13.93;4.27;;;;;;;;;;5013309;28;20595;-62
2021/04/22 11:32:15;;;;;;;10.90;3.83;;;;;;;;;;5013221;28;20211;-62
2021/04/22 11:34:42;;;;;;;11.43;4.47;;;;;;;;;;5023228;28;20230;-63
2021/04/22 11:37:13;;;;;;;9.93;3.90;;;;;;;;;;5015700;28;20218;-65
2021/04/22 11:39:41;;;;;;;15.10;4.33;;;;;;;;;;5013246;28;20265;-65
2021/04/22 11:42:08;;;;;;;15.60;4.53;;;;;;;;;;5013518;28;20204;-65
2021/04/22 11:44:35;;;;;;;13.43;4.43;;;;;;;;;;5012827;28;20785;-65
2021/04/22 11:47:02;;;;;;;12.27;4.43;;;;;;;;;;5013661;28;20208;-65
2021/04/22 11:49:30;;;;;;;8.73;3.97;;;;;;;;;;5012760;28;20967;-66
2021/04/22 11:51:56;;;;;;;13.97;4.40;;;;;;;;;;5013089;28;20211;-63
2021/04/22 11:54:24;;;;;;;9.33;4.03;;;;;;;;;;5012962;28;20330;-63
2021/04/22 11:56:59;;;;;;;9.13;4.30;;;;;;;;;;5013027;28;20222;-64
2021/04/22 11:59:26;;;;;;;10.63;5.00;;;;;;;;;;5012645;28;20214;-64
2021/04/22 12:01:58;;;;;;;12.93;4.13;;;;;;;;;;5012047;28;20211;-65
2021/04/22 12:04:34;;;;;;;8.83;3.67;;;;;;;;;;5012307;28;20278;-68
2021/04/22 12:07:01;;;;;;;12.23;4.50;;;;;;;;;;5012863;28;20579;-66
2021/04/22 12:09:28;;;;;;;13.40;4.23;;;;;;;;;;5012376;28;20227;-66
2021/04/22 12:11:55;;;;;;;13.90;4.27;;;;;;;;;;5012895;28;20211;-64
2021/04/22 12:14:29;;;;;;;12.70;4.10;;;;;;;;;;5012062;28;20230;-64
2021/04/22 12:16:56;;;;;;;11.37;3.83;;;;;;;;;;5012352;28;20208;-65
2021/04/22 12:19:25;;;;;;;15.43;4.13;;;;;;;;;;5012583;28;20216;-64
2021/04/22 12:21:51;;;;;;;8.60;4.63;;;;;;;;;;5012628;28;20206;-63
2021/04/22 12:24:22;;;;;;;14.90;4.50;;;;;;;;;;5011708;28;20731;-66
2021/04/22 12:26:48;;;;;;;12.13;4.73;;;;;;;;;;5012213;28;20215;-65
2021/04/22 12:29:16;;;;;;;9.93;4.80;;;;;;;;;;5011701;28;20701;-65
2021/04/22 12:31:44;;;;;;;10.37;4.50;;;;;;;;;;5012263;28;20303;-62
2021/04/22 12:34:12;;;;;;;14.83;5.00;;;;;;;;;;5012127;28;20235;-63
2021/04/22 12:36:41;;;;;;;17.50;4.70;;;;;;;;;;5012375;28;20764;-64
2021/04/22 12:39:08;;;;;;;10.83;4.03;;;;;;;;;;5011659;28;20216;-65
2021/04/22 12:41:34;;;;;;;14.37;4.63;;;;;;;;;;5012377;28;20214;-66
2021/04/22 12:44:01;;;;;;;12.47;4.07;;;;;;;;;;5012504;28;20223;-66
2021/04/22 12:46:29;;;;;;;13.47;4.60;;;;;;;;;;5012442;28;20212;-67
2021/04/22 12:48:58;;;;;;;15.67;6.87;;;;;;;;;;5011876;28;20729;-68
2021/04/22 12:51:31;;;;;;;17.30;7.83;;;;;;;;;;5012070;28;20498;-64
2021/04/22 12:53:57;;;;;;;13.50;5.27;;;;;;;;;;5012484;28;20188;-65
2021/04/22 12:56:24;;;;;;;12.17;4.70;;;;;;;;;;5011440;28;20215;-65
2021/04/22 12:58:52;;;;;;;14.17;5.10;;;;;;;;;;5011543;28;20206;-62
2021/04/22 13:01:20;;;;;;;12.97;4.40;;;;;;;;;;5012074;28;20728;-67
2021/04/22 13:03:48;;;;;;;13.57;4.80;;;;;;;;;;5011834;28;20617;-62
2021/04/22 13:06:16;;;;;;;12.63;5.03;;;;;;;;;;5011727;28;20212;-63
2021/04/22 13:08:44;;;;;;;17.00;5.30;;;;;;;;;;5011122;28;20213;-64
2021/04/22 13:11:12;;;;;;;14.13;5.50;;;;;;;;;;5011280;28;20205;-66
2021/04/22 13:13:40;;;;;;;9.70;5.20;;;;;;;;;;5011815;28;20207;-67
2021/04/22 13:16:08;;;;;;;8.00;4.60;;;;;;;;;;5011422;28;20286;-65
2021/04/22 13:18:35;;;;;;;8.57;4.43;;;;;;;;;;5011669;28;20210;-65
2021/04/22 13:21:01;;;;;;;12.20;4.83;;;;;;;;;;5011654;28;20210;-66
2021/04/22 13:23:30;;;;;;;12.93;5.00;;;;;;;;;;5011452;28;20208;-66
2021/04/22 13:25:58;;;;;;;15.17;5.57;;;;;;;;;;5011472;28;20298;-67
2021/04/22 13:28:26;;;;;;;12.73;4.87;;;;;;;;;;5002615;28;20213;-62
2021/04/22 13:30:53;;;;;;;11.03;5.33;;;;;;;;;;4992708;28;20231;-62
2021/04/22 13:33:24;;;;;;;12.07;4.70;;;;;;;;;;4993239;28;20213;-62
2021/04/22 13:35:50;;;;;;;10.20;4.87;;;;;;;;;;4991894;28;20321;-62
2021/04/22 13:38:18;;;;;;;12.37;5.10;;;;;;;;;;4991930;28;20222;-62
2021/04/22 13:40:46;;;;;;;11.90;5.20;;;;;;;;;;4992707;28;20217;-62
2021/04/22 13:43:13;;;;;;;17.53;5.50;;;;;;;;;;4992902;28;20250;-61
2021/04/22 13:45:40;;;;;;;15.00;4.97;;;;;;;;;;4991739;28;20312;-62
2021/04/22 13:48:08;;;;;;;9.70;4.83;;;;;;;;;;4991723;28;20207;-62
2021/04/22 13:50:34;;;;;;;11.37;5.20;;;;;;;;;;4991112;28;20226;-62
2021/04/22 13:53:01;;;;;;;11.20;4.90;;;;;;;;;;4991818;28;20226;-60
2021/04/22 13:55:28;;;;;;;12.67;5.93;;;;;;;;;;4991951;28;20241;-62
2021/04/22 13:57:57;;;;;;;12.17;5.10;;;;;;;;;;4992045;28;20245;-62
2021/04/22 14:00:24;;;;;;;11.67;4.93;;;;;;;;;;4991131;28;20259;-62
2021/04/22 14:02:52;;;;;;;12.80;4.70;;;;;;;;;;4992091;28;20203;-62
2021/04/22 14:05:19;;;;;;;10.57;5.13;;;;;;;;;;4991881;28;20238;-62
2021/04/22 14:07:49;;;;;;;8.77;4.73;;;;;;;;;;4991975;28;20266;-61
2021/04/22 14:10:25;;;;;;;11.50;4.90;;;;;;;;;;4991441;28;20227;-62
2021/04/22 14:12:52;;;;;;;9.20;4.90;;;;;;;;;;4992256;28;20646;-61
2021/04/22 14:15:19;;;;;;;13.67;5.00;;;;;;;;;;4991595;28;20732;-60
2021/04/22 14:17:46;;;;;;;10.23;5.07;;;;;;;;;;4991494;28;20204;-61
2021/04/22 14:20:13;;;;;;;10.17;4.97;;;;;;;;;;4991830;28;20272;-61
2021/04/22 14:22:39;;;;;;;12.27;5.20;;;;;;;;;;5007638;28;20210;-61
2021/04/22 14:25:07;;;;;;;10.87;4.57;;;;;;;;;;5031618;28;20265;-61
2021/04/22 14:27:33;;;;;;;15.13;4.67;;;;;;;;;;5035497;28;20206;-68
2021/04/22 14:30:00;;;;;;;9.33;4.97;;;;;;;;;;5037780;28;20241;-66
2021/04/22 14:32:27;;;;;;;10.27;4.97;;;;;;;;;;5036461;28;20210;-59